Decoded Metar for LFRD (DINARD in FRANCE) (IATA:DNR) | Meteo·Mobile Aviation Weather
aviador You're here:

LFRD Decoded Metar

DINARD in FRANCE
Report Time2019-02-17 19:30:00
UTC Time2019-02-17 19:55:56
Flight Rules ifr IFR
Wind180° at 11 kt
W.Decomp.*RWY 17: 10.8 kt HW 2.3 kt RCW
RWY 12: 5.2 kt HW 9.7 kt RCW
W.Rank180° ranks 6
Current wind is above 180° avg. (8.2)
Visibility9999 m
Phenomena:N/A
Clouds:N/A
Expected CloudBase > 800 ft AGL from Temp-Dew spread
Ceiling800 ft
Temp11°C (ISA -4)
Dew Point09°C (88% RH)
AAT6.8°C
QNH1017 hPa
Density Alt-217 ft
Elevation194 ft
Report Wrong Elevation
Raw Report
LFRD 171930Z AUTO 18011KT CAVOK 11/09 Q1017 TEMPO BKN008=

Extra information for LFRD:More info

Metar Taf Metar & Taf Last 4 Metars F.Rules Stats Wind Profile Meteogram Temp Stats Airport Information Weather charts Add Link Nearby VenuesMetar ALERT Operation Metar Decoded Social comments